createdAt,value
2019-03-27T00:00:56.193Z,0
2019-03-27T00:01:56.218Z,0
2019-03-27T00:02:56.175Z,0
2019-03-27T00:03:56.189Z,0
2019-03-27T00:04:56.129Z,0
2019-03-27T00:05:56.152Z,0
2019-03-27T00:06:56.097Z,0
2019-03-27T00:07:56.115Z,0
2019-03-27T00:08:56.067Z,0
2019-03-27T00:09:56.103Z,0
2019-03-27T00:10:56.064Z,0
2019-03-27T00:11:56.053Z,0
2019-03-27T00:12:56.008Z,0
2019-03-27T00:13:55.999Z,0
2019-03-27T00:14:56.005Z,0
2019-03-27T00:15:56.018Z,0
2019-03-27T00:16:55.955Z,0
2019-03-27T00:17:55.974Z,0
2019-03-27T00:18:55.935Z,0
2019-03-27T00:19:55.949Z,0
2019-03-27T00:20:55.889Z,0
2019-03-27T00:21:55.915Z,0
2019-03-27T00:22:55.860Z,0
2019-03-27T00:23:55.884Z,0
2019-03-27T00:24:55.840Z,0
2019-03-27T00:25:55.858Z,0
2019-03-27T00:26:55.830Z,0
2019-03-27T00:27:55.816Z,0
2019-03-27T00:28:55.769Z,0
2019-03-27T00:29:55.761Z,0
2019-03-27T00:30:56.069Z,0
2019-03-27T00:31:55.755Z,0
2019-03-27T00:32:55.758Z,0
2019-03-27T00:33:55.699Z,0
2019-03-27T00:34:55.496Z,0
2019-03-27T00:35:55.666Z,0
2019-03-27T00:36:55.708Z,0
2019-03-27T00:37:55.647Z,0
2019-03-27T00:38:55.422Z,0
2019-03-27T00:39:55.618Z,0
2019-03-27T00:40:55.644Z,0
2019-03-27T00:41:55.582Z,0
2019-03-27T00:42:55.604Z,0
2019-03-27T00:43:55.583Z,0
2019-03-27T00:44:55.535Z,0
2019-03-27T00:45:55.520Z,0
2019-03-27T00:46:55.530Z,0
2019-03-27T00:47:55.521Z,0
2019-03-27T00:48:55.523Z,0
2019-03-27T00:49:55.463Z,0
2019-03-27T00:50:55.474Z,0
2019-03-27T00:51:55.447Z,0
2019-03-27T00:52:55.461Z,0
2019-03-27T00:53:55.411Z,0
2019-03-27T00:54:55.433Z,0
2019-03-27T00:55:55.385Z,0
2019-03-27T00:56:55.401Z,0
2019-03-27T00:57:55.341Z,0
2019-03-27T00:58:55.346Z,0
2019-03-27T00:59:55.330Z,0
2019-03-27T01:00:55.113Z,0
2019-03-27T01:01:55.325Z,0
2019-03-27T01:02:55.285Z,0
2019-03-27T01:03:55.280Z,0
2019-03-27T01:04:55.241Z,0
2019-03-27T01:05:55.272Z,0
2019-03-27T01:06:58.040Z,0
2019-03-27T01:07:55.219Z,0
2019-03-27T01:08:55.229Z,0
2019-03-27T01:09:55.188Z,0
2019-03-27T01:10:55.199Z,0
2019-03-27T01:11:55.155Z,0
2019-03-27T01:12:55.185Z,0
2019-03-27T01:13:55.108Z,0
2019-03-27T01:14:55.111Z,0
2019-03-27T01:15:55.098Z,0
2019-03-27T01:16:55.122Z,0
2019-03-27T01:17:55.099Z,0
2019-03-27T01:18:55.055Z,0
2019-03-27T01:19:55.035Z,0
2019-03-27T01:20:55.006Z,0
2019-03-27T01:21:55.044Z,0
2019-03-27T01:22:55.007Z,0
2019-03-27T01:23:55.010Z,0
2019-03-27T01:24:54.952Z,0
2019-03-27T01:25:54.999Z,0
2019-03-27T01:26:54.921Z,0
2019-03-27T01:27:54.938Z,0
2019-03-27T01:28:54.894Z,0
2019-03-27T01:29:54.926Z,0
2019-03-27T01:30:54.890Z,0
2019-03-27T01:31:54.882Z,0
2019-03-27T01:32:54.844Z,0
2019-03-27T01:33:54.881Z,0
2019-03-27T01:34:54.822Z,0
2019-03-27T01:35:54.809Z,0
2019-03-27T01:36:54.535Z,0
2019-03-27T01:37:54.806Z,0
2019-03-27T01:38:54.770Z,0
2019-03-27T01:39:54.789Z,0
2019-03-27T01:40:54.718Z,0
2019-03-27T01:41:54.795Z,0
2019-03-27T01:42:54.697Z,0
2019-03-27T01:43:54.716Z,0
2019-03-27T01:44:54.681Z,0
2019-03-27T01:46:00.310Z,0
2019-03-27T01:46:54.653Z,0
2019-03-27T01:47:54.640Z,0
2019-03-27T01:48:54.666Z,0
2019-03-27T01:49:54.635Z,0
2019-03-27T01:50:54.613Z,0
2019-03-27T01:51:54.581Z,0
2019-03-27T01:52:54.557Z,0
2019-03-27T01:53:54.590Z,0
2019-03-27T01:54:54.544Z,0
2019-03-27T01:55:54.557Z,0
2019-03-27T01:56:54.494Z,0
2019-03-27T01:57:54.600Z,0
2019-03-27T01:58:54.494Z,0
2019-03-27T01:59:54.466Z,0
2019-03-27T02:00:54.554Z,0
2019-03-27T02:01:54.427Z,0
2019-03-27T02:02:54.430Z,0
2019-03-27T02:03:54.416Z,0
2019-03-27T02:04:54.184Z,0
2019-03-27T02:05:54.410Z,0
2019-03-27T02:06:54.371Z,0
2019-03-27T02:07:54.352Z,0
2019-03-27T02:08:54.329Z,0
2019-03-27T02:09:54.365Z,0
2019-03-27T02:10:54.317Z,0
2019-03-27T02:11:54.331Z,0
2019-03-27T02:12:54.272Z,0
2019-03-27T02:13:54.308Z,0
2019-03-27T02:14:54.244Z,0
2019-03-27T02:16:06.082Z,0
2019-03-27T02:16:54.250Z,0
2019-03-27T02:17:54.253Z,0
2019-03-27T02:18:54.220Z,0
2019-03-27T02:19:54.208Z,0
2019-03-27T02:20:54.161Z,0
2019-03-27T02:21:54.155Z,0
2019-03-27T02:22:54.179Z,0
2019-03-27T02:23:54.155Z,0
2019-03-27T02:24:54.108Z,0
2019-03-27T02:25:54.138Z,0
2019-03-27T02:26:54.110Z,0
2019-03-27T02:27:54.117Z,0
2019-03-27T02:28:53.823Z,0
2019-03-27T02:29:54.084Z,0
2019-03-27T02:30:53.796Z,0
2019-03-27T02:31:54.049Z,0
2019-03-27T02:32:53.776Z,0
2019-03-27T02:33:54.051Z,0
2019-03-27T02:34:54.032Z,0
2019-03-27T02:35:54.014Z,0
2019-03-27T02:36:53.968Z,0
2019-03-27T02:37:53.947Z,0
2019-03-27T02:38:53.949Z,0
2019-03-27T02:39:53.959Z,0
2019-03-27T02:40:53.942Z,0
2019-03-27T02:41:53.920Z,0
2019-03-27T02:42:53.903Z,0
2019-03-27T02:43:53.887Z,0
2019-03-27T02:44:53.891Z,0
2019-03-27T02:45:53.839Z,0
2019-03-27T02:46:53.870Z,0
2019-03-27T02:47:53.836Z,0
2019-03-27T02:48:53.856Z,0
2019-03-27T02:49:53.546Z,0
2019-03-27T02:50:53.827Z,0
2019-03-27T02:51:53.799Z,0
2019-03-27T02:52:53.531Z,0
2019-03-27T02:53:53.769Z,0
2019-03-27T02:54:53.749Z,0
2019-03-27T02:55:53.734Z,0
2019-03-27T02:56:53.741Z,0
2019-03-27T02:57:53.698Z,0
2019-03-27T02:58:53.726Z,0
2019-03-27T02:59:53.679Z,0
2019-03-27T03:00:53.719Z,0
2019-03-27T03:01:55.410Z,0
2019-03-27T03:02:53.678Z,0
2019-03-27T03:03:53.614Z,0
2019-03-27T03:04:53.633Z,0
2019-03-27T03:05:53.570Z,0
2019-03-27T03:06:53.576Z,0
2019-03-27T03:07:53.557Z,0
2019-03-27T03:08:53.582Z,0
2019-03-27T03:09:53.557Z,0
2019-03-27T03:10:53.512Z,0
2019-03-27T03:11:53.540Z,0
2019-03-27T03:12:53.495Z,0
2019-03-27T03:13:53.501Z,0
2019-03-27T03:14:53.462Z,0
2019-03-27T03:15:53.458Z,0
2019-03-27T03:16:53.471Z,0
2019-03-27T03:17:53.413Z,0
2019-03-27T03:18:53.621Z,0
2019-03-27T03:19:53.410Z,0
2019-03-27T03:20:53.460Z,0
2019-03-27T03:21:53.357Z,0
2019-03-27T03:22:52.864Z,0
2019-03-27T03:23:53.331Z,0
2019-03-27T03:24:53.475Z,0
2019-03-27T03:25:53.341Z,0
2019-03-27T03:26:57.952Z,0
2019-03-27T03:27:53.304Z,0
2019-03-27T03:28:53.301Z,0
2019-03-27T03:29:53.244Z,0
2019-03-27T03:30:53.478Z,0
2019-03-27T03:31:53.239Z,0
2019-03-27T03:32:53.290Z,0
2019-03-27T03:33:53.236Z,0
2019-03-27T03:34:53.489Z,0
2019-03-27T03:35:53.178Z,0
2019-03-27T03:36:53.198Z,0
2019-03-27T03:37:53.152Z,0
2019-03-27T03:38:53.150Z,0
2019-03-27T03:39:53.139Z,0
2019-03-27T03:40:53.148Z,0
2019-03-27T03:41:53.081Z,0
2019-03-27T03:42:53.103Z,0
2019-03-27T03:43:53.085Z,0
2019-03-27T03:44:53.110Z,0
2019-03-27T03:45:53.036Z,0
2019-03-27T03:47:06.276Z,0
2019-03-27T03:47:52.759Z,0
2019-03-27T03:48:53.031Z,0
2019-03-27T03:49:53.093Z,0
2019-03-27T03:50:53.105Z,0
2019-03-27T03:51:52.968Z,0
2019-03-27T03:52:53.405Z,0
2019-03-27T03:53:52.697Z,0
2019-03-27T03:54:52.935Z,0
2019-03-27T03:55:52.953Z,0
2019-03-27T03:56:52.688Z,0
2019-03-27T03:57:52.913Z,0
2019-03-27T03:58:52.892Z,0
2019-03-27T03:59:52.847Z,0
2019-03-27T04:00:52.614Z,0
2019-03-27T04:01:52.857Z,0
2019-03-27T04:02:52.816Z,0
2019-03-27T04:03:52.909Z,0
2019-03-27T04:04:52.788Z,0
2019-03-27T04:05:52.881Z,0
2019-03-27T04:06:52.766Z,0
2019-03-27T04:07:52.518Z,0
2019-03-27T04:08:52.783Z,0
2019-03-27T04:09:52.713Z,0
2019-03-27T04:10:52.735Z,0
2019-03-27T04:11:52.704Z,0
2019-03-27T04:12:52.735Z,0
2019-03-27T04:13:52.705Z,0
2019-03-27T04:14:52.660Z,0
2019-03-27T04:15:52.667Z,0
2019-03-27T04:16:52.623Z,0
2019-03-27T04:17:52.784Z,0
2019-03-27T04:18:52.605Z,0
2019-03-27T04:19:52.680Z,0
2019-03-27T04:20:52.609Z,0
2019-03-27T04:21:52.599Z,4
2019-03-27T04:22:52.546Z,0
2019-03-27T04:23:52.563Z,4
2019-03-27T04:24:52.525Z,0
2019-03-27T04:26:16.271Z,4
2019-03-27T04:26:52.526Z,4
2019-03-27T04:27:52.511Z,4
2019-03-27T04:28:52.470Z,4
2019-03-27T04:29:52.499Z,4
2019-03-27T04:30:52.483Z,8
2019-03-27T04:31:52.498Z,8
2019-03-27T04:32:52.441Z,12
2019-03-27T04:33:52.466Z,12
2019-03-27T04:34:54.581Z,12
2019-03-27T04:35:52.427Z,12
2019-03-27T04:36:52.372Z,16
2019-03-27T04:37:52.413Z,20
2019-03-27T04:38:52.374Z,24
2019-03-27T04:39:52.362Z,32
2019-03-27T04:40:52.328Z,32
2019-03-27T04:41:52.364Z,36
2019-03-27T04:42:52.387Z,44
2019-03-27T04:43:52.364Z,48
2019-03-27T04:44:52.275Z,56
2019-03-27T04:45:52.273Z,56
2019-03-27T04:46:52.280Z,60
2019-03-27T04:47:52.282Z,68
2019-03-27T04:48:52.022Z,80
2019-03-27T04:49:52.213Z,88
2019-03-27T04:50:52.223Z,96
2019-03-27T04:51:52.199Z,112
2019-03-27T04:52:52.218Z,128
2019-03-27T04:53:52.158Z,136
2019-03-27T04:54:52.185Z,148
2019-03-27T04:55:52.148Z,168
2019-03-27T04:56:52.167Z,188
2019-03-27T04:57:52.129Z,204
2019-03-27T04:58:52.124Z,224
2019-03-27T04:59:52.110Z,236
2019-03-27T05:00:52.084Z,236
2019-03-27T05:01:52.060Z,264
2019-03-27T05:02:52.078Z,308
2019-03-27T05:03:52.072Z,332
2019-03-27T05:04:52.077Z,376
2019-03-27T05:05:52.020Z,428
2019-03-27T05:06:52.026Z,476
2019-03-27T05:07:51.987Z,520
2019-03-27T05:08:52.021Z,588
2019-03-27T05:09:51.963Z,648
2019-03-27T05:10:52.004Z,672
2019-03-27T05:11:51.970Z,740
2019-03-27T05:12:51.920Z,776
2019-03-27T05:13:51.959Z,768
2019-03-27T05:14:51.931Z,720
2019-03-27T05:15:51.916Z,664
2019-03-27T05:16:51.876Z,628
2019-03-27T05:17:53.645Z,636
2019-03-27T05:18:51.891Z,668
2019-03-27T05:19:51.871Z,656
2019-03-27T05:20:51.873Z,684
2019-03-27T05:21:51.825Z,692
2019-03-27T05:22:51.841Z,696
2019-03-27T05:23:51.824Z,720
2019-03-27T05:24:51.779Z,748
2019-03-27T05:25:51.813Z,764
2019-03-27T05:26:51.773Z,756
2019-03-27T05:27:51.776Z,760
2019-03-27T05:28:51.736Z,804
2019-03-27T05:29:51.767Z,816
2019-03-27T05:30:51.767Z,792
2019-03-27T05:31:51.733Z,772
2019-03-27T05:32:51.777Z,752
2019-03-27T05:33:51.683Z,776
2019-03-27T05:34:51.688Z,828
2019-03-27T05:35:51.678Z,916
2019-03-27T05:36:51.767Z,984
2019-03-27T05:37:51.630Z,976
2019-03-27T05:38:51.639Z,1000
2019-03-27T05:39:51.609Z,1012
2019-03-27T05:40:51.638Z,1040
2019-03-27T05:41:51.587Z,1128
2019-03-27T05:43:05.325Z,1236
2019-03-27T05:43:51.568Z,1200
2019-03-27T05:44:51.594Z,1168
2019-03-27T05:45:51.534Z,1192
2019-03-27T05:46:51.545Z,1212
2019-03-27T05:48:04.169Z,1212
2019-03-27T05:48:51.546Z,1236
2019-03-27T05:49:51.506Z,1292
2019-03-27T05:50:51.505Z,1236
2019-03-27T05:51:51.497Z,1268
2019-03-27T05:52:51.497Z,1240
2019-03-27T05:53:51.537Z,1292
2019-03-27T05:54:51.458Z,1316
2019-03-27T05:55:51.424Z,1368
2019-03-27T05:56:51.452Z,1448
2019-03-27T05:57:51.399Z,1516
2019-03-27T05:58:51.436Z,1616
2019-03-27T05:59:51.386Z,1580
2019-03-27T06:00:51.423Z,1616
2019-03-27T06:01:51.351Z,1604
2019-03-27T06:02:51.356Z,1844
2019-03-27T06:03:51.350Z,1764
2019-03-27T06:04:51.365Z,1784
2019-03-27T06:05:51.349Z,1916
2019-03-27T06:06:51.313Z,1924
2019-03-27T06:07:51.333Z,1924
2019-03-27T06:08:51.273Z,1888
2019-03-27T06:09:51.312Z,1896
2019-03-27T06:10:51.269Z,1780
2019-03-27T06:11:51.286Z,1732
2019-03-27T06:12:51.226Z,1540
2019-03-27T06:13:51.260Z,1540
2019-03-27T06:14:51.230Z,1492
2019-03-27T06:15:52.431Z,1468
2019-03-27T06:16:51.229Z,1432
2019-03-27T06:17:51.226Z,1532
2019-03-27T06:18:51.255Z,1688
2019-03-27T06:19:51.175Z,1772
2019-03-27T06:20:50.949Z,1840
2019-03-27T06:21:51.210Z,1992
2019-03-27T06:22:51.139Z,2124
2019-03-27T06:23:51.182Z,2300
2019-03-27T06:24:51.093Z,2640
2019-03-27T06:25:50.879Z,2716
2019-03-27T06:26:51.090Z,2748
2019-03-27T06:27:51.107Z,2632
2019-03-27T06:28:51.048Z,2392
2019-03-27T06:29:51.088Z,2200
2019-03-27T06:30:51.026Z,2044
2019-03-27T06:31:51.085Z,1952
2019-03-27T06:32:51.010Z,2136
2019-03-27T06:33:51.053Z,2084
2019-03-27T06:34:51.010Z,2128
2019-03-27T06:35:51.002Z,2176
2019-03-27T06:36:50.959Z,2452
2019-03-27T06:37:50.956Z,2452
2019-03-27T06:38:50.964Z,2804
2019-03-27T06:39:50.959Z,2844
2019-03-27T06:40:50.927Z,2896
2019-03-27T06:41:50.947Z,2976
2019-03-27T06:42:50.919Z,2988
2019-03-27T06:43:50.932Z,2956
2019-03-27T06:44:50.878Z,2924
2019-03-27T06:45:50.908Z,2688
2019-03-27T06:46:50.856Z,2700
2019-03-27T06:47:50.904Z,2708
2019-03-27T06:48:50.829Z,2560
2019-03-27T06:49:50.625Z,2548
2019-03-27T06:50:50.847Z,2860
2019-03-27T06:51:50.830Z,3084
2019-03-27T06:52:50.790Z,2912
2019-03-27T06:53:50.793Z,2828
2019-03-27T06:54:50.791Z,2984
2019-03-27T06:55:50.782Z,3012
2019-03-27T06:56:50.789Z,3100
2019-03-27T06:57:50.732Z,2992
2019-03-27T06:59:01.650Z,3164
2019-03-27T06:59:50.715Z,3336
2019-03-27T07:00:50.752Z,3008
2019-03-27T07:01:50.699Z,3156
2019-03-27T07:02:50.727Z,2780
2019-03-27T07:03:50.682Z,2596
2019-03-27T07:04:50.704Z,2328
2019-03-27T07:05:50.725Z,2308
2019-03-27T07:06:50.666Z,2588
2019-03-27T07:07:50.660Z,2128
2019-03-27T07:08:50.619Z,1904
2019-03-27T07:09:50.614Z,1964
2019-03-27T07:10:50.620Z,2212
2019-03-27T07:11:50.615Z,1900
2019-03-27T07:12:50.636Z,2340
2019-03-27T07:13:50.564Z,2692
2019-03-27T07:14:50.592Z,2916
2019-03-27T07:15:50.371Z,3560
2019-03-27T07:16:50.573Z,3468
2019-03-27T07:17:50.523Z,3504
2019-03-27T07:18:50.573Z,3364
2019-03-27T07:19:50.514Z,3504
2019-03-27T07:20:50.543Z,3660
2019-03-27T07:21:50.475Z,3936
2019-03-27T07:22:50.491Z,4452
2019-03-27T07:23:50.470Z,5504
2019-03-27T07:24:50.494Z,6568
2019-03-27T07:25:50.504Z,7720
2019-03-27T07:26:50.446Z,8092
2019-03-27T07:27:50.431Z,8784
2019-03-27T07:28:50.409Z,8560
2019-03-27T07:29:50.440Z,8104
2019-03-27T07:30:50.403Z,8144
2019-03-27T07:31:50.392Z,9380
2019-03-27T07:32:50.415Z,10048
2019-03-27T07:33:50.357Z,9696
2019-03-27T07:34:50.389Z,9068
2019-03-27T07:35:50.346Z,9228
2019-03-27T07:36:50.365Z,9804
2019-03-27T07:37:50.312Z,10444
2019-03-27T07:38:50.319Z,9748
2019-03-27T07:39:50.305Z,8820
2019-03-27T07:40:50.401Z,10096
2019-03-27T07:41:50.314Z,10452
2019-03-27T07:42:50.290Z,10820
2019-03-27T07:43:50.298Z,9052
2019-03-27T07:44:50.245Z,8984
2019-03-27T07:45:50.280Z,12108
2019-03-27T07:46:50.285Z,13152
2019-03-27T07:47:52.979Z,12408
2019-03-27T07:49:00.437Z,12348
2019-03-27T07:49:50.245Z,12280
2019-03-27T07:50:50.195Z,11624
2019-03-27T07:51:50.210Z,11956
2019-03-27T07:52:50.174Z,13072
2019-03-27T07:53:50.206Z,14628
2019-03-27T07:54:50.183Z,15444
2019-03-27T07:55:50.181Z,15336
2019-03-27T07:56:50.147Z,13464
2019-03-27T07:57:50.172Z,11608
2019-03-27T07:58:50.138Z,11572
2019-03-27T07:59:50.130Z,12180
2019-03-27T08:00:50.143Z,12960
2019-03-27T08:01:50.139Z,13364
2019-03-27T08:02:50.110Z,12476
2019-03-27T08:03:50.131Z,11760
2019-03-27T08:04:50.075Z,10488
2019-03-27T08:05:50.109Z,8956
2019-03-27T08:06:50.065Z,8576
2019-03-27T08:07:50.121Z,7632
2019-03-27T08:08:50.054Z,8760
2019-03-27T08:09:50.081Z,9832
2019-03-27T08:10:50.130Z,9264
2019-03-27T08:11:50.052Z,9676
2019-03-27T08:12:50.033Z,11532
2019-03-27T08:13:50.023Z,13460
2019-03-27T08:14:50.033Z,14504
2019-03-27T08:15:50.019Z,14360
2019-03-27T08:16:50.036Z,14196
2019-03-27T08:17:49.990Z,15660
2019-03-27T08:18:49.994Z,16896
2019-03-27T08:19:49.956Z,15588
2019-03-27T08:20:50.000Z,14276
2019-03-27T08:21:50.002Z,13256
2019-03-27T08:22:49.715Z,13412
2019-03-27T08:23:49.962Z,12636
2019-03-27T08:24:49.944Z,15056
2019-03-27T08:25:49.963Z,18208
2019-03-27T08:26:49.938Z,19712
2019-03-27T08:27:49.939Z,19840
2019-03-27T08:28:49.896Z,20160
2019-03-27T08:29:49.898Z,20512
2019-03-27T08:30:49.904Z,20384
2019-03-27T08:31:49.907Z,19648
2019-03-27T08:32:49.915Z,18176
2019-03-27T08:33:49.864Z,18400
2019-03-27T08:34:49.967Z,19488
2019-03-27T08:35:49.714Z,20096
2019-03-27T08:36:49.844Z,20640
2019-03-27T08:37:49.965Z,21504
2019-03-27T08:38:49.835Z,22240
2019-03-27T08:39:49.872Z,22272
2019-03-27T08:40:49.845Z,22368
2019-03-27T08:41:49.851Z,22272
2019-03-27T08:42:49.830Z,21280
2019-03-27T08:43:49.827Z,21952
2019-03-27T08:44:49.797Z,22368
2019-03-27T08:45:49.806Z,22432
2019-03-27T08:46:49.811Z,23456
2019-03-27T08:47:49.811Z,24128
2019-03-27T08:48:49.779Z,24672
2019-03-27T08:49:49.807Z,24928
2019-03-27T08:50:49.786Z,23296
2019-03-27T08:51:49.805Z,22752
2019-03-27T08:52:49.841Z,22368
2019-03-27T08:53:49.788Z,21216
2019-03-27T08:54:49.749Z,20800
2019-03-27T08:55:49.517Z,20512
2019-03-27T08:56:49.731Z,20992
2019-03-27T08:57:49.521Z,20672
2019-03-27T08:58:49.746Z,19360
2019-03-27T08:59:49.772Z,19136
2019-03-27T09:00:49.740Z,20256
2019-03-27T09:01:49.712Z,21088
2019-03-27T09:02:49.728Z,20704
2019-03-27T09:03:49.732Z,20704
2019-03-27T09:04:49.733Z,20736
2019-03-27T09:05:49.689Z,20544
2019-03-27T09:06:49.706Z,20000
2019-03-27T09:07:49.678Z,20576
2019-03-27T09:08:49.713Z,21696
2019-03-27T09:09:49.671Z,19840
2019-03-27T09:10:49.709Z,20064
2019-03-27T09:11:49.690Z,19040
2019-03-27T09:12:49.702Z,19584
2019-03-27T09:13:49.653Z,20832
2019-03-27T09:14:49.676Z,20864
2019-03-27T09:15:49.673Z,18784
2019-03-27T09:16:49.643Z,16064
2019-03-27T09:17:49.676Z,14276
2019-03-27T09:18:49.663Z,14128
2019-03-27T09:19:49.658Z,13880
2019-03-27T09:20:49.670Z,13444
2019-03-27T09:21:49.615Z,14484
2019-03-27T09:22:49.643Z,16512
2019-03-27T09:23:52.836Z,17760
2019-03-27T09:24:49.666Z,16608
2019-03-27T09:25:49.607Z,12040
2019-03-27T09:26:49.632Z,9308
2019-03-27T09:27:49.603Z,8636
2019-03-27T09:29:49.575Z,10516
2019-03-27T09:30:49.572Z,10376
2019-03-27T09:31:52.398Z,9520
2019-03-27T09:32:49.588Z,9800
2019-03-27T09:33:49.603Z,10568
2019-03-27T09:34:49.554Z,10236
2019-03-27T09:35:49.802Z,10404
2019-03-27T09:36:49.557Z,11464
2019-03-27T09:37:49.575Z,12684
2019-03-27T09:38:49.297Z,12384
2019-03-27T09:39:49.554Z,11980
2019-03-27T09:40:49.543Z,12168
2019-03-27T09:41:49.527Z,11008
2019-03-27T09:42:49.557Z,8752
2019-03-27T09:43:49.526Z,7392
2019-03-27T09:44:49.280Z,7168
2019-03-27T09:45:49.488Z,7588
2019-03-27T09:46:49.485Z,8348
2019-03-27T09:47:49.503Z,9376
2019-03-27T09:48:49.525Z,11400
2019-03-27T09:49:56.376Z,13824
2019-03-27T09:50:49.469Z,15132
2019-03-27T09:51:49.476Z,15888
2019-03-27T09:52:49.448Z,15500
2019-03-27T09:53:49.484Z,14500
2019-03-27T09:54:49.450Z,14504
2019-03-27T09:55:49.470Z,15756
2019-03-27T09:56:49.433Z,15288
2019-03-27T09:57:49.452Z,15108
2019-03-27T09:58:49.401Z,15736
2019-03-27T09:59:49.419Z,16640
2019-03-27T10:00:49.497Z,16160
2019-03-27T10:01:49.512Z,14852
2019-03-27T10:02:49.173Z,13388
2019-03-27T10:03:49.394Z,11852
2019-03-27T10:04:49.384Z,10228
2019-03-27T10:05:49.408Z,11256
2019-03-27T10:06:50.794Z,13888
2019-03-27T10:07:49.330Z,14592
2019-03-27T10:08:49.322Z,12124
2019-03-27T10:09:52.643Z,11792
2019-03-27T10:10:49.338Z,13476
2019-03-27T10:11:49.312Z,15284
2019-03-27T10:12:49.306Z,15716
2019-03-27T10:13:49.294Z,16992
2019-03-27T10:14:52.395Z,16084
2019-03-27T10:15:49.363Z,14120
2019-03-27T10:16:49.275Z,13384
2019-03-27T10:17:49.266Z,14700
2019-03-27T10:18:52.025Z,18208
2019-03-27T10:20:02.399Z,20992
2019-03-27T10:20:49.252Z,21632
2019-03-27T10:21:49.246Z,20352
2019-03-27T10:22:49.248Z,16736
2019-03-27T10:23:49.234Z,13960
2019-03-27T10:24:49.236Z,11656
2019-03-27T10:25:49.307Z,10296
2019-03-27T10:26:49.951Z,9016
2019-03-27T10:27:49.216Z,8548
2019-03-27T10:28:49.213Z,9204
2019-03-27T10:29:49.212Z,9344
2019-03-27T10:30:49.196Z,9084
2019-03-27T10:31:49.200Z,8732
2019-03-27T10:32:49.297Z,8164
2019-03-27T10:33:49.178Z,7364
2019-03-27T10:34:49.174Z,6864
2019-03-27T10:35:49.177Z,7512
2019-03-27T10:36:49.164Z,8388
2019-03-27T10:37:49.229Z,8168
2019-03-27T10:38:49.309Z,8308
2019-03-27T10:39:49.149Z,8640
2019-03-27T10:40:49.140Z,8280
2019-03-27T10:41:49.135Z,8088
2019-03-27T10:42:49.140Z,8568
2019-03-27T10:43:49.119Z,9024
2019-03-27T10:44:49.122Z,8632
2019-03-27T10:45:49.128Z,8872
2019-03-27T10:46:49.103Z,9576
2019-03-27T10:47:49.095Z,9740
2019-03-27T10:48:59.904Z,9576
2019-03-27T10:49:48.843Z,9856
2019-03-27T10:50:49.093Z,10932
2019-03-27T10:51:49.073Z,11092
2019-03-27T10:52:49.152Z,11256
2019-03-27T10:53:49.063Z,13908
2019-03-27T10:54:49.127Z,15768
2019-03-27T10:55:49.043Z,14228
2019-03-27T10:56:49.039Z,11192
2019-03-27T10:57:48.795Z,8892
2019-03-27T10:58:49.042Z,9196
2019-03-27T10:59:49.024Z,11980
2019-03-27T11:00:49.024Z,14264
2019-03-27T11:01:49.011Z,15428
2019-03-27T11:02:49.001Z,15248
2019-03-27T11:03:48.991Z,14524
2019-03-27T11:04:48.984Z,13592
2019-03-27T11:05:48.982Z,12616
2019-03-27T11:06:48.981Z,11984
2019-03-27T11:07:48.966Z,10876
2019-03-27T11:08:48.969Z,10232
2019-03-27T11:09:48.953Z,10324
2019-03-27T11:10:48.955Z,9960
2019-03-27T11:11:48.940Z,10484
2019-03-27T11:12:48.935Z,10768
2019-03-27T11:13:48.935Z,9620
2019-03-27T11:14:48.920Z,8596
2019-03-27T11:15:48.917Z,8080
2019-03-27T11:16:48.907Z,8196
2019-03-27T11:17:48.902Z,9644
2019-03-27T11:18:48.656Z,12608
2019-03-27T11:19:48.892Z,16076
2019-03-27T11:20:48.887Z,18176
2019-03-27T11:21:48.877Z,17536
2019-03-27T11:22:48.867Z,15920
2019-03-27T11:23:48.863Z,15488
2019-03-27T11:24:48.916Z,14812
2019-03-27T11:25:49.156Z,13840
2019-03-27T11:26:48.842Z,12592
2019-03-27T11:27:48.844Z,11856
2019-03-27T11:28:48.833Z,11784
2019-03-27T11:29:48.822Z,11884
2019-03-27T11:30:50.819Z,11252
2019-03-27T11:31:48.813Z,10996
2019-03-27T11:32:49.008Z,11772
2019-03-27T11:33:48.890Z,11324
2019-03-27T11:34:48.792Z,10024
2019-03-27T11:35:51.590Z,9412
2019-03-27T11:39:35.105Z,13084
2019-03-27T11:40:35.102Z,13460
2019-03-27T11:41:35.095Z,14312
2019-03-27T11:42:35.096Z,12592
2019-03-27T11:43:35.080Z,13048
2019-03-27T11:44:35.074Z,13868
2019-03-27T11:45:35.075Z,13144
2019-03-27T11:46:37.027Z,12688
2019-03-27T11:47:35.057Z,13000
2019-03-27T11:48:35.058Z,13836
2019-03-27T11:49:35.075Z,13792
2019-03-27T11:50:48.751Z,12268
2019-03-27T11:51:35.034Z,10900
2019-03-27T11:52:36.843Z,10900
2019-03-27T11:53:35.020Z,11796
2019-03-27T11:54:35.024Z,12624
2019-03-27T11:55:35.103Z,12892
2019-03-27T11:56:35.012Z,11648
2019-03-27T11:57:34.992Z,11504
2019-03-27T11:58:34.987Z,12416
2019-03-27T11:59:35.018Z,14124
2019-03-27T12:00:34.975Z,16416
2019-03-27T12:01:48.658Z,19232
2019-03-27T12:02:34.962Z,20416
2019-03-27T12:03:34.962Z,20352
2019-03-27T12:04:34.958Z,19072
2019-03-27T12:05:34.949Z,16928
2019-03-27T12:06:34.943Z,13264
2019-03-27T12:07:34.940Z,11512
2019-03-27T12:08:34.923Z,10364
2019-03-27T12:09:34.914Z,9576
2019-03-27T12:10:34.914Z,8796
2019-03-27T12:11:34.906Z,9080
2019-03-27T12:12:34.903Z,9916
2019-03-27T12:13:34.966Z,10300
2019-03-27T12:14:34.901Z,10724
2019-03-27T12:15:34.889Z,9476
2019-03-27T12:16:34.882Z,9364
2019-03-27T12:17:34.869Z,9744
2019-03-27T12:18:36.900Z,9980
2019-03-27T12:19:37.565Z,10260
2019-03-27T12:20:34.943Z,12232
2019-03-27T12:21:34.860Z,15336
2019-03-27T12:22:34.849Z,17408
2019-03-27T12:23:34.835Z,17792
2019-03-27T12:24:35.687Z,17472
2019-03-27T12:25:34.832Z,17504
2019-03-27T12:26:34.827Z,19168
2019-03-27T12:27:34.817Z,19936
2019-03-27T12:28:34.803Z,19456
2019-03-27T12:29:34.899Z,17792
2019-03-27T12:30:34.820Z,14432
2019-03-27T12:31:34.811Z,12244
2019-03-27T12:32:34.831Z,11320
2019-03-27T12:33:34.777Z,10920
2019-03-27T12:34:36.794Z,10168
2019-03-27T12:35:34.770Z,10128
2019-03-27T12:36:34.821Z,10420
2019-03-27T12:37:34.777Z,10580
2019-03-27T12:38:34.758Z,11412
2019-03-27T12:39:34.754Z,11724
2019-03-27T12:40:34.740Z,12452
2019-03-27T12:41:37.747Z,14364
2019-03-27T12:42:34.723Z,14848
2019-03-27T12:43:34.718Z,15148
2019-03-27T12:44:34.716Z,15880
2019-03-27T12:45:34.712Z,16608
2019-03-27T12:46:34.711Z,15984
2019-03-27T12:47:34.464Z,14688
2019-03-27T12:48:34.694Z,13924
2019-03-27T12:49:34.691Z,13320
2019-03-27T12:50:34.685Z,14640
2019-03-27T12:51:34.688Z,15400
2019-03-27T12:52:34.728Z,15888
2019-03-27T12:53:34.669Z,15652
2019-03-27T12:54:34.423Z,14436
2019-03-27T12:55:34.652Z,11788
2019-03-27T12:56:34.650Z,9372
2019-03-27T12:57:34.654Z,8324
2019-03-27T12:58:34.642Z,8204
2019-03-27T12:59:34.635Z,8468
2019-03-27T13:00:34.628Z,8696
2019-03-27T13:01:34.388Z,9524
2019-03-27T13:02:34.637Z,11316
2019-03-27T13:03:34.623Z,13192
2019-03-27T13:04:34.630Z,14180
2019-03-27T13:05:34.614Z,15200
2019-03-27T13:06:34.602Z,16096
2019-03-27T13:07:34.623Z,15308
2019-03-27T13:08:34.595Z,14388
2019-03-27T13:09:34.590Z,13936
2019-03-27T13:10:34.589Z,13948
2019-03-27T13:11:36.684Z,13040
2019-03-27T13:12:34.570Z,10184
2019-03-27T13:13:34.584Z,9956
2019-03-27T13:14:34.595Z,11176
2019-03-27T13:15:34.597Z,11800
2019-03-27T13:16:34.605Z,11768
2019-03-27T13:17:36.784Z,11360
2019-03-27T13:18:34.563Z,11540
2019-03-27T13:19:34.577Z,12280
2019-03-27T13:20:34.622Z,12700
2019-03-27T13:21:34.588Z,12652
2019-03-27T13:22:34.548Z,12448
2019-03-27T13:23:34.620Z,12068
2019-03-27T13:24:34.548Z,12828
2019-03-27T13:25:34.316Z,13232
2019-03-27T13:26:34.517Z,11888
2019-03-27T13:27:34.528Z,11652
2019-03-27T13:28:47.735Z,13332
2019-03-27T13:29:34.634Z,14720
2019-03-27T13:30:34.531Z,14412
2019-03-27T13:31:34.508Z,14520
2019-03-27T13:32:34.514Z,14612
2019-03-27T13:33:34.526Z,14860
2019-03-27T13:34:34.474Z,15444
2019-03-27T13:35:34.502Z,15332
2019-03-27T13:36:34.461Z,14484
2019-03-27T13:37:34.529Z,13884
2019-03-27T13:38:34.456Z,13428
2019-03-27T13:39:34.493Z,12784
2019-03-27T13:40:34.457Z,11908
2019-03-27T13:41:34.491Z,11052
2019-03-27T13:42:34.190Z,11364